Time;durP1;ratioP1;P1;durP2;ratioP2;P2;SDS_P1;SDS_P2;PMS_P1;PMS_P2;Temp;Humidity;BMP_temperature;BMP_pressure;BME280_temperature;BME280_humidity;BME280_pressure;Samples;Min_cycle;Max_cycle;Signal;HPM_P1;HPM_P2
2022/02/22 00:01:34;;;;;;;33.67;4.40;;;;;;;5.17;98.69;101783.81;5053275;28;20017;-78
2022/02/22 00:03:59;;;;;;;30.80;4.18;;;;;;;5.16;98.47;101776.81;5053530;28;20029;-77
2022/02/22 00:06:25;;;;;;;26.83;4.72;;;;;;;5.18;98.60;101778.53;5053133;28;20029;-78
2022/02/22 00:08:50;;;;;;;26.45;4.60;;;;;;;5.17;98.71;101789.91;5053450;28;20096;-77
2022/02/22 00:11:15;;;;;;;29.42;4.45;;;;;;;5.12;99.17;101798.72;5053198;28;20025;-78
2022/02/22 00:13:40;;;;;;;28.25;4.20;;;;;;;5.14;99.27;101799.56;5052988;28;20040;-77
2022/02/22 00:16:06;;;;;;;23.17;3.33;;;;;;;5.13;99.84;101798.69;5053741;28;20039;-77
2022/02/22 00:18:32;;;;;;;25.52;3.35;;;;;;;5.13;99.97;101798.69;5053021;28;20029;-77
2022/02/22 00:20:57;;;;;;;27.48;3.85;;;;;;;5.11;99.31;101805.69;5053212;28;20448;-77
2022/02/22 00:23:23;;;;;;;39.75;4.75;;;;;;;5.09;99.49;101810.13;5053264;28;20029;-77
2022/02/22 00:25:48;;;;;;;30.38;4.03;;;;;;;5.07;100.00;101819.75;5053133;28;20519;-77
2022/02/22 00:28:14;;;;;;;27.92;4.07;;;;;;;5.04;100.00;101815.38;5052598;28;20032;-75
2022/02/22 00:30:39;;;;;;;30.33;4.07;;;;;;;5.08;99.83;101824.97;5053485;28;20102;-75
2022/02/22 00:33:04;;;;;;;37.90;4.38;;;;;;;5.11;100.00;101820.59;5052921;28;20056;-77
2022/02/22 00:35:30;;;;;;;32.70;3.83;;;;;;;5.09;99.90;101818.84;5052986;28;20033;-78
2022/02/22 00:37:55;;;;;;;30.15;4.35;;;;;;;5.05;100.00;101830.25;5052546;28;20045;-78
2022/02/22 00:40:20;;;;;;;26.23;3.72;;;;;;;5.04;100.00;101832.91;5053077;28;20021;-78
2022/02/22 00:42:46;;;;;;;28.50;4.28;;;;;;;5.03;100.00;101839.03;5052462;28;20057;-75
2022/02/22 00:45:12;;;;;;;34.35;4.82;;;;;;;4.98;100.00;101836.41;5052951;28;20021;-77
2022/02/22 00:47:38;;;;;;;24.63;4.50;;;;;;;4.99;100.00;101839.94;5052495;28;20029;-77
2022/02/22 00:50:05;;;;;;;29.25;3.88;;;;;;;4.98;100.00;101836.41;5052491;28;20067;-77
2022/02/22 00:52:30;;;;;;;29.80;3.47;;;;;;;5.00;100.00;101836.41;5052859;28;20033;-77
2022/02/22 00:54:56;;;;;;;25.95;4.00;;;;;;;4.96;100.00;101835.53;5052538;28;20374;-77
2022/02/22 00:57:21;;;;;;;23.65;3.72;;;;;;;4.93;100.00;101839.06;5052668;28;20040;-76
2022/02/22 00:59:47;;;;;;;28.73;4.18;;;;;;;4.89;100.00;101833.84;5055342;28;20017;-77
2022/02/22 01:02:13;;;;;;;32.65;5.78;;;;;;;4.86;100.00;101825.97;5059364;28;20041;-75
2022/02/22 01:04:39;;;;;;;23.55;3.78;;;;;;;4.88;100.00;101839.97;5058956;28;20021;-77
2022/02/22 01:07:04;;;;;;;21.02;3.70;;;;;;;4.85;100.00;101847.88;5059525;28;20032;-77
2022/02/22 01:09:30;;;;;;;24.50;3.83;;;;;;;4.84;100.00;101846.97;5059160;28;20033;-77
2022/02/22 01:11:55;;;;;;;20.80;3.67;;;;;;;4.81;100.00;101839.13;5059302;28;20028;-77
2022/02/22 01:14:20;;;;;;;34.13;4.10;;;;;;;4.78;100.00;101830.41;5059016;28;20035;-77
2022/02/22 01:16:46;;;;;;;39.85;4.25;;;;;;;4.76;100.00;101835.66;5059128;28;20025;-75
2022/02/22 01:19:11;;;;;;;34.88;4.60;;;;;;;4.71;100.00;101853.19;5059205;28;20021;-77
2022/02/22 01:21:36;;;;;;;30.80;3.97;;;;;;;4.69;100.00;101861.06;5058922;28;20129;-76
2022/02/22 01:24:04;;;;;;;27.80;3.75;;;;;;;4.73;100.00;101868.03;5059290;28;20029;-76
2022/02/22 01:26:30;;;;;;;24.67;4.05;;;;;;;4.75;100.00;101875.91;5059028;28;20044;-77
2022/02/22 01:28:58;;;;;;;24.63;3.55;;;;;;;4.73;100.00;101865.41;5040962;28;20116;-74
2022/02/22 01:31:24;;;;;;;29.20;4.20;;;;;;;4.71;100.00;101861.91;5058910;28;20488;-77
2022/02/22 01:33:54;;;;;;;22.77;3.55;;;;;;;4.73;100.00;101856.66;5059078;28;20040;-73
2022/02/22 01:36:20;;;;;;;22.33;4.10;;;;;;;4.72;100.00;101847.06;5058694;28;20081;-73
2022/02/22 01:38:46;;;;;;;23.25;3.47;;;;;;;4.70;100.00;101851.44;5059236;28;20057;-74
2022/02/22 01:41:11;;;;;;;22.98;4.20;;;;;;;4.73;100.00;101862.78;5059149;28;20606;-74
2022/02/22 01:43:39;;;;;;;31.13;4.15;;;;;;;4.70;100.00;101849.66;5058742;28;20033;-74
2022/02/22 01:46:04;;;;;;;27.27;4.13;;;;;;;4.63;100.00;101860.19;5059005;28;20029;-74
2022/02/22 01:48:30;;;;;;;33.95;3.92;;;;;;;4.60;100.00;101863.69;5058685;28;20086;-75
2022/02/22 01:50:55;;;;;;;29.17;3.58;;;;;;;4.61;100.00;101862.81;5059141;28;20519;-74
2022/02/22 01:53:20;;;;;;;25.88;3.47;;;;;;;4.62;100.00;101872.44;5058691;28;20025;-77
2022/02/22 01:55:47;;;;;;;27.60;4.43;;;;;;;4.64;100.00;101861.94;5059123;28;20029;-76
2022/02/22 01:58:14;;;;;;;31.25;3.65;;;;;;;4.65;100.00;101882.06;5058623;28;20140;-75
2022/02/22 02:00:42;;;;;;;26.60;3.75;;;;;;;4.67;100.00;101868.06;5058685;28;20458;-74
2022/02/22 02:03:08;;;;;;;20.60;3.45;;;;;;;4.65;100.00;101876.81;5058930;28;20024;-76
2022/02/22 02:05:33;;;;;;;25.50;3.60;;;;;;;4.58;100.00;101868.94;5059107;28;20528;-74
2022/02/22 02:07:59;;;;;;;21.27;3.15;;;;;;;4.54;100.00;101866.34;5058729;28;20029;-75
2022/02/22 02:10:26;;;;;;;25.70;3.60;;;;;;;4.52;100.00;101865.47;5058028;28;20033;-74
2022/02/22 02:12:52;;;;;;;25.88;4.15;;;;;;;4.54;100.00;101869.84;5054663;28;20068;-74
2022/02/22 02:15:17;;;;;;;21.52;3.38;;;;;;;4.58;100.00;101876.81;5055475;28;20087;-74
2022/02/22 02:17:42;;;;;;;21.65;2.90;;;;;;;4.62;100.00;101874.19;5055362;28;20039;-74
2022/02/22 02:20:11;;;;;;;24.75;3.00;;;;;;;4.61;100.00;101880.31;5055917;28;20020;-77
2022/02/22 02:22:37;;;;;;;22.60;3.28;;;;;;;4.64;100.00;101849.69;5046833;28;20048;-77
2022/02/22 02:25:04;;;;;;;23.02;3.63;;;;;;;4.62;100.00;101863.69;5053976;28;20532;-74
2022/02/22 02:27:29;;;;;;;19.20;3.88;;;;;;;4.59;100.00;101867.19;5044238;28;20030;-76
2022/02/22 02:29:59;;;;;;;17.48;2.95;;;;;;;4.62;100.00;101866.31;5051200;28;20476;-74
2022/02/22 02:32:25;;;;;;;33.75;4.13;;;;;;;4.67;100.00;101868.06;5044448;28;20031;-74
2022/02/22 02:34:51;;;;;;;24.50;3.45;;;;;;;4.66;100.00;101865.44;5055266;28;20025;-74
2022/02/22 02:37:16;;;;;;;24.60;3.97;;;;;;;4.66;100.00;101868.94;5067547;28;20045;-74
2022/02/22 02:39:42;;;;;;;18.65;2.78;;;;;;;4.64;100.00;101854.94;5073709;28;20032;-77
2022/02/22 02:42:07;;;;;;;22.05;3.05;;;;;;;4.63;100.00;101853.22;5075553;28;20043;-74
2022/02/22 02:44:32;;;;;;;21.55;3.92;;;;;;;4.64;100.00;101854.94;5073398;28;20461;-74
2022/02/22 02:46:58;;;;;;;19.92;2.92;;;;;;;4.61;100.00;101852.31;5074930;28;20029;-77
2022/02/22 02:49:23;;;;;;;23.70;3.60;;;;;;;4.61;100.00;101861.97;5073481;28;20119;-74
2022/02/22 02:51:49;;;;;;;28.33;3.92;;;;;;;4.58;100.00;101852.34;5075000;28;20103;-74
2022/02/22 02:54:15;;;;;;;23.67;3.22;;;;;;;4.59;100.00;101859.31;5073207;28;20039;-74
2022/02/22 02:56:41;;;;;;;24.30;3.10;;;;;;;4.55;100.00;101858.47;5074826;28;20043;-73
2022/02/22 02:59:09;;;;;;;25.77;3.03;;;;;;;4.57;100.00;101855.84;5074702;28;20027;-74
2022/02/22 03:01:38;;;;;;;24.05;3.60;;;;;;;4.52;100.00;101858.47;5071729;28;20021;-74
2022/02/22 03:04:04;;;;;;;26.40;3.20;;;;;;;4.54;100.00;101872.47;5073403;28;20037;-74
2022/02/22 03:06:30;;;;;;;18.52;3.03;;;;;;;4.60;100.00;101866.31;5074712;28;20086;-74
2022/02/22 03:08:55;;;;;;;17.15;2.95;;;;;;;4.63;100.00;101866.31;5074751;28;20020;-73
2022/02/22 03:11:21;;;;;;;19.70;2.88;;;;;;;4.63;100.00;101868.94;5057603;28;20028;-74
2022/02/22 03:13:46;;;;;;;19.40;3.35;;;;;;;4.62;100.00;101864.56;5053133;28;20112;-76
2022/02/22 03:16:12;;;;;;;19.63;3.38;;;;;;;4.64;100.00;101864.56;5054468;28;20033;-74
2022/02/22 03:18:38;;;;;;;17.77;2.90;;;;;;;4.59;100.00;101865.47;5054252;28;20021;-74
2022/02/22 03:21:05;;;;;;;24.13;3.88;;;;;;;4.52;100.00;101868.09;5054374;28;20108;-74
2022/02/22 03:23:31;;;;;;;28.48;2.97;;;;;;;4.45;100.00;101864.63;5053881;28;20035;-73
2022/02/22 03:25:56;;;;;;;23.25;3.10;;;;;;;4.43;100.00;101854.13;5055331;28;20021;-74
2022/02/22 03:28:22;;;;;;;25.38;3.15;;;;;;;4.46;100.00;101852.38;5054383;28;20021;-73
2022/02/22 03:30:47;;;;;;;27.63;3.28;;;;;;;4.48;100.00;101858.50;5053887;28;20021;-77
2022/02/22 03:33:13;;;;;;;24.90;3.05;;;;;;;4.48;100.00;101848.88;5053848;28;20045;-73
2022/02/22 03:35:41;;;;;;;23.55;3.45;;;;;;;4.49;100.00;101863.75;5054047;28;20357;-76
2022/02/22 03:38:07;;;;;;;17.60;2.65;;;;;;;4.47;100.00;101862.00;5054582;28;20033;-74
2022/02/22 03:40:32;;;;;;;20.17;3.47;;;;;;;4.48;100.00;101864.63;5054164;28;20116;-76
2022/02/22 03:42:58;;;;;;;21.13;3.15;;;;;;;4.54;100.00;101863.72;5041846;28;20056;-74
2022/02/22 03:45:24;;;;;;;22.17;3.35;;;;;;;4.52;100.00;101868.09;5042877;28;20029;-75
2022/02/22 03:47:50;;;;;;;22.88;3.25;;;;;;;4.50;100.00;101868.13;5053408;28;20436;-76
2022/02/22 03:50:16;;;;;;;33.60;4.55;;;;;;;4.53;100.00;101865.47;5054012;28;20053;-76
2022/02/22 03:52:43;;;;;;;30.63;3.65;;;;;;;4.55;100.00;101861.09;5035504;28;20112;-74
2022/02/22 03:55:09;;;;;;;22.85;4.43;;;;;;;4.56;100.00;101864.59;5053767;28;20079;-77
2022/02/22 03:57:35;;;;;;;25.15;3.17;;;;;;;4.53;100.00;101862.84;5053441;28;20526;-77
2022/02/22 04:00:03;;;;;;;25.52;3.25;;;;;;;4.49;100.00;101860.22;5053668;28;20028;-72
2022/02/22 04:02:30;;;;;;;21.35;3.13;;;;;;;4.44;100.00;101870.75;5053437;28;20090;-76
2022/02/22 04:04:56;;;;;;;21.40;3.28;;;;;;;4.42;100.00;101864.63;5053270;28;20025;-75
2022/02/22 04:07:21;;;;;;;26.40;3.05;;;;;;;4.37;100.00;101867.28;5053481;28;20035;-76
2022/02/22 04:09:46;;;;;;;26.73;3.35;;;;;;;4.36;100.00;101862.00;5053212;28;20028;-76
2022/02/22 04:12:12;;;;;;;22.00;4.63;;;;;;;4.34;100.00;101874.28;5053573;28;20032;-77
2022/02/22 04:14:38;;;;;;;18.23;3.47;;;;;;;4.37;100.00;101867.28;5053379;28;20028;-74
2022/02/22 04:17:04;;;;;;;21.05;3.60;;;;;;;4.30;100.00;101867.28;5053564;28;20461;-74
2022/02/22 04:19:29;;;;;;;18.65;3.80;;;;;;;4.25;100.00;101877.78;5052779;28;20043;-74
2022/02/22 04:21:54;;;;;;;28.02;3.53;;;;;;;4.25;100.00;101873.41;5053223;28;20075;-74
2022/02/22 04:24:19;;;;;;;17.83;2.85;;;;;;;4.23;100.00;101875.19;5053068;28;20025;-74
2022/02/22 04:26:45;;;;;;;32.75;3.55;;;;;;;4.18;100.00;101879.56;5053298;28;20484;-74
2022/02/22 04:29:10;;;;;;;18.15;2.70;;;;;;;4.14;100.00;101874.31;5052983;28;20059;-76
2022/02/22 04:31:38;;;;;;;22.85;3.35;;;;;;;4.12;100.00;101878.66;5053215;28;20062;-73
2022/02/22 04:34:05;;;;;;;16.52;2.90;;;;;;;4.11;100.00;101867.31;5052322;28;20048;-74
2022/02/22 04:36:31;;;;;;;18.13;3.60;;;;;;;4.08;100.00;101872.59;5052285;28;20045;-77
2022/02/22 04:38:57;;;;;;;32.47;4.05;;;;;;;4.04;100.00;101868.19;5053139;28;20096;-74
2022/02/22 04:41:23;;;;;;;28.17;3.92;;;;;;;3.97;100.00;101869.94;5052736;28;20035;-76
2022/02/22 04:43:48;;;;;;;33.92;3.85;;;;;;;3.96;100.00;101869.97;5053245;28;20032;-75
2022/02/22 04:46:13;;;;;;;24.38;3.58;;;;;;;3.98;100.00;101869.09;5052594;28;20477;-76
2022/02/22 04:48:39;;;;;;;19.33;3.17;;;;;;;3.99;100.00;101875.19;5052833;28;20082;-74
2022/02/22 04:51:04;;;;;;;22.05;3.42;;;;;;;3.98;100.00;101878.69;5052256;28;20484;-74
2022/02/22 04:53:29;;;;;;;18.80;2.95;;;;;;;3.99;100.00;101875.19;5052796;28;20131;-76
2022/02/22 04:55:54;;;;;;;27.35;3.55;;;;;;;4.00;100.00;101874.31;5052705;28;20086;-75
2022/02/22 04:58:20;;;;;;;18.10;3.08;;;;;;;4.08;100.00;101889.16;5053018;28;20035;-74
2022/02/22 05:00:46;;;;;;;24.08;3.63;;;;;;;4.24;100.00;101881.28;5052711;28;20052;-76
2022/02/22 05:03:13;;;;;;;23.13;3.67;;;;;;;4.30;100.00;101878.66;5052490;28;20449;-74
2022/02/22 05:05:38;;;;;;;29.20;3.63;;;;;;;4.44;100.00;101883.88;5052106;28;20040;-74
2022/02/22 05:08:04;;;;;;;20.38;2.92;;;;;;;4.51;100.00;101884.72;5052839;28;20029;-74
2022/02/22 05:10:29;;;;;;;24.75;3.28;;;;;;;4.60;100.00;101863.69;5052698;28;20029;-73
2022/02/22 05:12:54;;;;;;;19.33;2.80;;;;;;;4.69;100.00;101858.44;5052301;28;20029;-76
2022/02/22 05:15:20;;;;;;;25.25;3.10;;;;;;;4.83;100.00;101863.59;5052007;28;20067;-74
2022/02/22 05:17:45;;;;;;;23.95;3.75;;;;;;;4.92;100.00;101852.19;5052625;28;20521;-76
2022/02/22 05:20:11;;;;;;;20.38;3.22;;;;;;;4.93;100.00;101854.78;5052717;28;20025;-76
2022/02/22 05:22:45;;;;;;;20.17;3.00;;;;;;;4.87;100.00;101849.59;5052176;28;20028;-75
2022/02/22 05:25:12;;;;;;;20.20;3.45;;;;;;;4.89;100.00;101847.81;5052562;28;20029;-74
2022/02/22 05:27:37;;;;;;;20.05;3.33;;;;;;;4.97;100.00;101857.44;5052204;28;20033;-77
2022/02/22 05:30:07;;;;;;;17.27;3.03;;;;;;;5.02;100.00;101847.78;5052475;28;20036;-74
2022/02/22 05:32:33;;;;;;;24.85;4.05;;;;;;;5.08;100.00;101848.59;5052326;28;20048;-77
2022/02/22 05:35:00;;;;;;;23.02;3.75;;;;;;;5.14;100.00;101846.81;5048552;28;20057;-75
2022/02/22 05:37:26;;;;;;;14.77;2.60;;;;;;;5.11;100.00;101837.22;5052532;28;20041;-74
2022/02/22 05:39:54;;;;;;;19.38;3.42;;;;;;;5.04;100.00;101833.75;5052294;28;20372;-77
2022/02/22 05:42:19;;;;;;;27.77;3.65;;;;;;;4.99;100.00;101830.28;5052678;28;20039;-77
2022/02/22 05:44:44;;;;;;;13.60;2.85;;;;;;;4.95;100.00;101833.81;5062183;28;20381;-77
2022/02/22 05:47:10;;;;;;;22.85;3.28;;;;;;;4.87;100.00;101828.59;5070090;28;20033;-75
2022/02/22 05:49:35;;;;;;;18.98;3.20;;;;;;;4.77;100.00;101824.28;5056067;28;20436;-75
2022/02/22 05:52:00;;;;;;;21.10;3.70;;;;;;;4.72;100.00;101829.56;5055726;28;20473;-74
2022/02/22 05:54:26;;;;;;;25.95;3.08;;;;;;;4.68;100.00;101832.19;5057237;28;20032;-78
2022/02/22 05:56:51;;;;;;;20.85;3.10;;;;;;;4.62;100.00;101835.72;5038986;28;20036;-78
2022/02/22 05:59:17;;;;;;;20.73;3.42;;;;;;;4.56;100.00;101822.63;5054970;28;20052;-73
2022/02/22 06:01:45;;;;;;;24.15;3.78;;;;;;;4.51;100.00;101827.00;5055963;28;20029;-77
2022/02/22 06:04:11;;;;;;;15.77;3.42;;;;;;;4.48;100.00;101819.16;5054961;28;20104;-77
2022/02/22 06:06:38;;;;;;;23.58;3.35;;;;;;;4.43;100.00;101817.41;5049158;28;20537;-77
2022/02/22 06:09:03;;;;;;;24.98;4.50;;;;;;;4.35;100.00;101819.19;5035452;28;20030;-77
2022/02/22 06:11:28;;;;;;;25.90;4.07;;;;;;;4.30;100.00;101817.44;5054468;28;20099;-77
2022/02/22 06:13:54;;;;;;;23.55;3.17;;;;;;;4.26;100.00;101806.13;5055043;28;20383;-77
2022/02/22 06:16:19;;;;;;;27.92;4.35;;;;;;;4.24;100.00;101813.97;5054943;28;20056;-77
2022/02/22 06:18:45;;;;;;;28.27;4.22;;;;;;;4.18;100.00;101810.50;5055330;28;20025;-76
2022/02/22 06:21:10;;;;;;;24.33;4.30;;;;;;;4.14;100.00;101806.16;5055449;28;20036;-75
2022/02/22 06:23:35;;;;;;;19.33;4.47;;;;;;;4.12;100.00;101813.13;5055249;28;20155;-77
2022/02/22 06:26:01;;;;;;;22.85;4.22;;;;;;;4.13;100.00;101815.78;5055396;28;20025;-77
2022/02/22 06:28:26;;;;;;;15.85;3.58;;;;;;;4.13;100.00;101807.91;5055881;28;20066;-73
2022/02/22 06:30:51;;;;;;;24.08;4.18;;;;;;;4.15;100.00;101800.91;5055476;28;20021;-77
2022/02/22 06:33:17;;;;;;;29.75;4.25;;;;;;;4.27;100.00;101792.13;5055230;28;20021;-75
2022/02/22 06:35:42;;;;;;;22.23;4.20;;;;;;;4.37;100.00;101787.72;5054753;28;20029;-76
2022/02/22 06:38:07;;;;;;;20.75;4.00;;;;;;;4.39;100.00;101801.72;5052276;28;20087;-79
2022/02/22 06:40:36;;;;;;;29.35;4.53;;;;;;;4.43;100.00;101798.19;5054475;28;20128;-78
2022/02/22 06:43:01;;;;;;;24.48;3.85;;;;;;;4.51;100.00;101788.53;5055057;28;20029;-78
2022/02/22 06:45:27;;;;;;;24.90;4.18;;;;;;;4.59;100.00;101797.25;5054812;28;20079;-76
2022/02/22 06:47:52;;;;;;;19.20;3.70;;;;;;;4.70;100.00;101796.31;5053903;28;20123;-75
2022/02/22 06:50:17;;;;;;;18.42;3.70;;;;;;;4.77;100.00;101798.06;5054592;28;20063;-79
2022/02/22 06:52:43;;;;;;;26.10;3.50;;;;;;;4.80;100.00;101792.78;5047907;28;20471;-75
2022/02/22 06:55:10;;;;;;;24.42;3.28;;;;;;;4.86;100.00;101792.75;5034423;28;20384;-77
2022/02/22 06:57:36;;;;;;;26.15;3.92;;;;;;;4.93;100.00;101776.06;5045552;28;20040;-78
2022/02/22 07:00:02;;;;;;;18.60;3.33;;;;;;;5.01;100.00;101789.16;5053911;28;20033;-77
2022/02/22 07:02:28;;;;;;;22.45;3.88;;;;;;;5.13;100.00;101790.81;5054589;28;20413;-76
2022/02/22 07:04:53;;;;;;;31.27;4.65;;;;;;;5.20;100.00;101794.28;5054531;28;20025;-77
2022/02/22 07:07:19;;;;;;;29.65;4.22;;;;;;;5.27;100.00;101788.09;5054545;28;20071;-77
2022/02/22 07:09:44;;;;;;;19.13;3.38;;;;;;;5.27;100.00;101774.97;5053748;28;20021;-77
2022/02/22 07:12:09;;;;;;;26.75;3.78;;;;;;;5.33;100.00;101779.28;5054029;28;20489;-77
2022/02/22 07:14:35;;;;;;;21.52;4.15;;;;;;;5.34;100.00;101773.16;5054383;28;20037;-74
2022/02/22 07:17:00;;;;;;;24.98;4.30;;;;;;;5.36;100.00;101758.28;5054368;28;20032;-75
2022/02/22 07:19:26;;;;;;;30.52;4.72;;;;;;;5.44;100.00;101761.69;5054323;28;20032;-77
2022/02/22 07:21:51;;;;;;;22.80;4.60;;;;;;;5.49;100.00;101756.41;5053733;28;20031;-77
2022/02/22 07:24:16;;;;;;;22.65;4.45;;;;;;;5.49;100.00;101749.38;5054036;28;20464;-77
2022/02/22 07:26:42;;;;;;;24.25;5.72;;;;;;;5.50;100.00;101752.88;5053890;28;20021;-74
2022/02/22 07:29:07;;;;;;;22.70;4.95;;;;;;;5.55;100.00;101744.09;5054208;28;20025;-74
2022/02/22 07:31:32;;;;;;;26.17;5.18;;;;;;;5.62;100.00;101744.88;5049181;28;20028;-77
2022/02/22 07:33:58;;;;;;;28.80;6.40;;;;;;;5.69;100.00;101737.81;5045509;28;20029;-73
2022/02/22 07:36:24;;;;;;;24.15;4.68;;;;;;;5.75;100.00;101737.75;5047196;28;20060;-73
2022/02/22 07:38:49;;;;;;;29.58;5.13;;;;;;;5.77;100.00;101735.09;5044779;28;20029;-72
2022/02/22 07:41:22;;;;;;;19.73;4.47;;;;;;;5.83;100.00;101733.31;5053428;28;20040;-75
2022/02/22 07:43:51;;;;;;;37.30;7.53;;;;;;;5.94;100.00;101729.69;5048791;28;20045;-75
2022/02/22 07:46:17;;;;;;;29.15;5.75;;;;;;;6.00;100.00;101734.91;5053617;28;20044;-74
2022/02/22 07:48:44;;;;;;;33.25;6.10;;;;;;;6.05;100.00;101740.97;5050600;28;20033;-77
2022/02/22 07:51:11;;;;;;;29.45;4.53;;;;;;;6.07;100.00;101720.78;5043014;28;20532;-77
2022/02/22 07:53:36;;;;;;;27.77;4.97;;;;;;;6.10;100.00;101727.75;5052993;28;20072;-75
2022/02/22 07:56:04;;;;;;;20.65;4.75;;;;;;;6.16;100.00;101735.59;5053027;28;20052;-73
2022/02/22 07:58:30;;;;;;;29.48;4.90;;;;;;;6.22;100.00;101720.59;5053233;28;20039;-76
2022/02/22 08:00:55;;;;;;;22.02;4.05;;;;;;;6.26;100.00;101725.84;5050712;28;20021;-77
2022/02/22 08:03:20;;;;;;;26.80;4.85;;;;;;;6.30;100.00;101720.50;5045383;28;20079;-73
2022/02/22 08:05:45;;;;;;;20.20;4.28;;;;;;;6.36;100.00;101716.94;5053296;28;20028;-75
2022/02/22 08:08:11;;;;;;;29.63;5.65;;;;;;;6.42;100.00;101719.47;5049452;28;20158;-76
2022/02/22 08:10:36;;;;;;;25.10;5.10;;;;;;;6.39;100.00;101715.13;5044083;28;20040;-76
2022/02/22 08:13:01;;;;;;;26.85;4.68;;;;;;;6.48;100.00;101700.97;5048357;28;20036;-75
2022/02/22 08:15:27;;;;;;;25.05;5.10;;;;;;;6.50;100.00;101695.69;5052838;28;20021;-71
2022/02/22 08:17:52;;;;;;;32.15;5.50;;;;;;;6.54;100.00;101695.59;5052508;28;20112;-74
2022/02/22 08:20:17;;;;;;;25.75;4.65;;;;;;;6.51;100.00;101689.50;5053094;28;20039;-74
2022/02/22 08:22:43;;;;;;;22.35;5.05;;;;;;;6.53;100.00;101679.84;5052638;28;20557;-75
2022/02/22 08:25:08;;;;;;;28.40;5.60;;;;;;;6.54;100.00;101669.28;5053072;28;20033;-74
2022/02/22 08:27:35;;;;;;;19.30;4.32;;;;;;;6.55;100.00;101671.03;5050977;28;20024;-74
2022/02/22 08:30:00;;;;;;;32.83;5.82;;;;;;;6.56;100.00;101664.03;5047200;28;20051;-74
2022/02/22 08:32:26;;;;;;;33.55;5.35;;;;;;;6.65;100.00;101665.63;5052888;28;20766;-73
2022/02/22 08:34:51;;;;;;;34.70;6.30;;;;;;;6.77;100.00;101662.81;5052684;28;20108;-74
2022/02/22 08:37:16;;;;;;;24.00;4.88;;;;;;;6.91;100.00;101654.72;5050565;28;20048;-74
2022/02/22 08:39:42;;;;;;;28.02;5.47;;;;;;;6.89;100.00;101651.22;5034416;28;20082;-77
2022/02/22 08:42:09;;;;;;;25.73;5.40;;;;;;;6.94;100.00;101644.09;5037667;28;20021;-74
2022/02/22 08:44:35;;;;;;;24.98;5.40;;;;;;;7.07;100.00;101628.97;5052238;28;20086;-74
2022/02/22 08:47:00;;;;;;;23.48;5.25;;;;;;;7.21;100.00;101634.00;5052702;28;20480;-76
2022/02/22 08:49:26;;;;;;;23.85;4.22;;;;;;;7.46;100.00;101636.19;5052042;28;20033;-74
2022/02/22 08:51:51;;;;;;;27.08;4.75;;;;;;;7.56;97.37;101619.31;5050920;28;20035;-73
2022/02/22 08:54:16;;;;;;;27.00;4.28;;;;;;;7.53;97.20;101627.25;5037203;28;20464;-74
2022/02/22 08:56:42;;;;;;;21.50;4.35;;;;;;;7.68;96.33;101605.00;5052496;28;20033;-74
2022/02/22 08:59:07;;;;;;;18.30;3.85;;;;;;;7.65;95.41;101602.44;5051990;28;20083;-74
2022/02/22 09:01:32;;;;;;;24.23;4.80;;;;;;;7.63;95.64;101606.88;5052802;28;20021;-74
2022/02/22 09:03:58;;;;;;;28.08;4.88;;;;;;;7.59;95.55;101598.13;5052751;28;20047;-76
2022/02/22 09:06:24;;;;;;;20.95;4.85;;;;;;;7.48;95.10;101600.13;5052150;28;20020;-74
2022/02/22 09:08:49;;;;;;;21.95;3.95;;;;;;;7.43;94.76;101596.72;5052083;28;20425;-76
2022/02/22 09:11:14;;;;;;;22.48;4.55;;;;;;;7.42;93.78;101587.06;5052301;28;20056;-75
2022/02/22 09:13:40;;;;;;;42.80;8.68;;;;;;;7.38;94.17;101599.44;5051796;28;20039;-75
2022/02/22 09:16:05;;;;;;;31.42;5.05;;;;;;;7.25;94.00;101600.56;5051969;28;20457;-73
2022/02/22 09:18:30;;;;;;;22.60;4.45;;;;;;;7.22;94.39;101593.59;5052512;28;20029;-74
2022/02/22 09:20:56;;;;;;;26.88;4.82;;;;;;;7.30;94.48;101594.31;5053448;28;20013;-74
2022/02/22 09:23:21;;;;;;;20.17;4.35;;;;;;;7.36;94.16;101607.34;5056230;28;20055;-74
2022/02/22 09:25:46;;;;;;;18.67;5.20;;;;;;;7.41;94.07;101593.25;5055293;28;20107;-74
2022/02/22 09:28:12;;;;;;;24.23;4.75;;;;;;;7.51;92.46;101582.47;5055385;28;20033;-74
2022/02/22 09:30:37;;;;;;;26.33;5.68;;;;;;;7.59;92.01;101608.69;5055903;28;20102;-74
2022/02/22 09:33:05;;;;;;;25.25;6.65;;;;;;;7.57;91.62;101621.03;5055929;28;20066;-75
2022/02/22 09:35:31;;;;;;;26.77;5.75;;;;;;;7.59;91.83;101621.88;5055755;28;20033;-73
2022/02/22 09:37:57;;;;;;;23.08;5.93;;;;;;;7.47;92.45;101614.22;5044808;28;20477;-74
2022/02/22 09:40:23;;;;;;;25.17;5.38;;;;;;;7.43;92.65;101615.16;5055366;28;20456;-76
2022/02/22 09:42:49;;;;;;;24.40;4.68;;;;;;;7.41;92.96;101607.28;5055869;28;20021;-74
2022/02/22 09:45:15;;;;;;;27.50;5.32;;;;;;;7.38;93.61;101589.75;5055252;28;20020;-77
2022/02/22 09:47:42;;;;;;;26.05;4.63;;;;;;;7.50;93.48;101587.78;5055439;28;20063;-74
2022/02/22 09:50:10;;;;;;;30.98;5.07;;;;;;;7.49;93.64;101588.69;5055646;28;20063;-76
2022/02/22 09:52:35;;;;;;;28.15;5.53;;;;;;;7.49;93.82;101586.03;5051492;28;20028;-72
2022/02/22 09:55:02;;;;;;;31.42;6.25;;;;;;;7.42;94.50;101600.22;5052814;28;20610;-72
2022/02/22 09:57:27;;;;;;;30.30;6.68;;;;;;;7.30;95.02;101596.97;5050828;28;20044;-72
2022/02/22 09:59:53;;;;;;;34.60;6.47;;;;;;;7.21;96.23;101587.47;5052469;28;20033;-75
2022/02/22 10:02:18;;;;;;;29.40;5.65;;;;;;;7.23;96.73;101576.88;5048946;28;20028;-72
2022/02/22 10:04:49;;;;;;;30.45;5.45;;;;;;;7.19;97.35;101538.34;5050545;28;20032;-75
2022/02/22 10:07:14;;;;;;;45.10;10.25;;;;;;;7.14;99.39;101574.44;5052018;28;20025;-74
2022/02/22 10:09:55;;;;;;;24.85;4.78;;;;;;;7.08;100.00;101577.19;5054587;28;20032;-73
2022/02/22 10:12:29;;;;;;;24.90;6.43;;;;;;;6.85;100.00;101566.19;5052519;28;20036;-74
2022/02/22 10:14:56;;;;;;;25.23;5.18;;;;;;;6.83;100.00;101557.41;5048360;28;20032;-72
2022/02/22 10:17:22;;;;;;;35.30;5.90;;;;;;;6.81;100.00;101556.56;5051589;28;20404;-72
2022/02/22 10:19:57;;;;;;;34.65;7.63;;;;;;;6.75;100.00;101551.41;5051523;28;20035;-75
2022/02/22 10:22:22;;;;;;;28.13;7.47;;;;;;;6.65;100.00;101541.94;5046833;28;20130;-72
2022/02/22 10:24:48;;;;;;;30.55;6.85;;;;;;;6.64;100.00;101535.81;5054923;28;20516;-74
2022/02/22 10:27:13;;;;;;;31.45;7.30;;;;;;;6.60;100.00;101541.16;5054916;28;20029;-74
2022/02/22 10:29:38;;;;;;;32.63;7.75;;;;;;;6.61;100.00;101542.88;5054584;28;20545;-74
2022/02/22 10:32:16;;;;;;;49.25;10.60;;;;;;;6.61;100.00;101529.72;5053129;28;20021;-77
2022/02/22 10:34:42;;;;;;;28.30;6.85;;;;;;;6.66;100.00;101528.78;5054656;28;20040;-73
2022/02/22 10:37:08;;;;;;;36.20;7.00;;;;;;;6.72;100.00;101525.16;5054631;28;20053;-75
2022/02/22 10:39:33;;;;;;;31.63;6.95;;;;;;;6.78;100.00;101534.69;5054614;28;20488;-73
2022/02/22 10:41:59;;;;;;;29.08;7.00;;;;;;;6.82;100.00;101546.94;5053566;28;20028;-73
2022/02/22 10:44:32;;;;;;;29.63;7.60;;;;;;;6.87;100.00;101545.94;5050735;28;20033;-74
2022/02/22 10:46:57;;;;;;;29.15;7.85;;;;;;;6.93;100.00;101558.13;5053544;28;20132;-75
2022/02/22 10:49:25;;;;;;;28.60;7.43;;;;;;;7.01;100.00;101536.94;5053564;28;20104;-74
2022/02/22 10:51:51;;;;;;;28.45;7.97;;;;;;;7.07;100.00;101517.50;5054170;28;20029;-74
2022/02/22 10:54:22;;;;;;;30.27;9.35;;;;;;;7.16;100.00;101512.94;5053348;28;20107;-75
2022/02/22 10:56:48;;;;;;;37.03;9.75;;;;;;;7.22;100.00;101510.19;5052982;28;20093;-75
2022/02/22 10:59:13;;;;;;;39.70;8.77;;;;;;;7.32;100.00;101515.25;5053743;28;20057;-73
2022/02/22 11:01:39;;;;;;;28.02;6.57;;;;;;;7.38;100.00;101516.00;5052040;28;20461;-74
2022/02/22 11:04:06;;;;;;;27.05;7.18;;;;;;;7.48;100.00;101507.88;5053657;28;20116;-70
2022/02/22 11:06:32;;;;;;;30.92;6.65;;;;;;;7.55;100.00;101502.44;5054321;28;20025;-71
2022/02/22 11:08:58;;;;;;;37.70;7.35;;;;;;;7.62;100.00;101520.75;5054553;28;20025;-71
2022/02/22 11:11:41;;;;;;;25.40;6.53;;;;;;;7.65;100.00;101515.44;5037391;28;20064;-70
2022/02/22 11:14:10;;;;;;;21.67;5.57;;;;;;;7.80;100.00;101514.22;5053922;28;20112;-74